KSFB

Orlando Sanford International Airport

Orlando, Florida, USA
METAR KSFB 182153Z 10011KT 10SM CLR 31/23 A3005 RMK AO2 SLP176 T03110228
Observed Flight Rules
Jun-18 @ 21:53 UTC (40 minutes ago) Visual Flight Rules
Wind Visibility Clouds
100° at 11 knots 10 miles
  • Clear skies
Temperatures Readings
Current 31°C / 88°F
Dewpoint 23°C / 73°F
Humidity 62%
Altimeter 30.05" Hg
Pressure 1017.6 hPa
Elevation 17
METAR KSFB 182153Z 10011KT 10SM CLR 31/23 A3005 RMK AO2 SLP176 T03110228
Observed Flight Rules
Jun-18 @ 21:53 UTC
(40 minutes ago)
VFR
Wind Visibility
100° at 11 knots 10 miles
Clouds
  • Clear skies
Temperature Dewpoint
31°C / 88°F 23°C / 73°F
Humidity Altimeter Pressure
62% 30.05" Hg 1017.6 hPa